createdAt,value
2023-04-21T00:00:53.911Z,98106.00
2023-04-21T00:06:38.824Z,98101.00
2023-04-21T00:12:20.668Z,98096.00
2023-04-21T00:17:54.947Z,98087.00
2023-04-21T00:23:29.901Z,98090.00
2023-04-21T00:28:59.419Z,98074.00
2023-04-21T00:34:24.248Z,98080.00
2023-04-21T00:39:46.744Z,98079.00
2023-04-21T00:45:09.063Z,98079.00
2023-04-21T00:50:30.613Z,98063.00
2023-04-21T00:56:08.212Z,98059.00
2023-04-21T01:01:54.535Z,98062.00
2023-04-21T01:07:34.407Z,98061.00
2023-04-21T01:12:56.202Z,98052.00
2023-04-21T01:18:26.685Z,98049.00
2023-04-21T01:23:58.080Z,98046.00
2023-04-21T01:29:21.583Z,98049.00
2023-04-21T01:34:43.647Z,98051.00
2023-04-21T01:40:07.804Z,98048.00
2023-04-21T01:45:30.595Z,98050.00
2023-04-21T01:51:08.734Z,98052.00
2023-04-21T01:56:55.771Z,98049.00
2023-04-21T02:02:29.636Z,98043.00
2023-04-21T02:07:52.681Z,98052.00
2023-04-21T02:13:29.081Z,98049.00
2023-04-21T02:19:05.089Z,98041.00
2023-04-21T02:24:27.628Z,98042.00
2023-04-21T02:29:49.168Z,98031.00
2023-04-21T02:35:10.767Z,98042.00
2023-04-21T02:40:33.228Z,98043.00
2023-04-21T02:46:11.423Z,98047.00
2023-04-21T02:52:03.762Z,98049.00
2023-04-21T02:57:50.858Z,98039.00
2023-04-21T03:03:59.861Z,98031.00
2023-04-21T03:09:30.039Z,98035.00
2023-04-21T03:14:51.704Z,98036.00
2023-04-21T03:20:13.127Z,98040.00
2023-04-21T03:25:34.792Z,98043.00
2023-04-21T03:31:18.972Z,98039.00
2023-04-21T03:37:08.740Z,98040.00
2023-04-21T03:42:54.904Z,98040.00
2023-04-21T03:48:30.980Z,98028.00
2023-04-21T03:54:03.515Z,98026.00
2023-04-21T03:59:26.266Z,98017.00
2023-04-21T04:05:09.358Z,98038.00
2023-04-21T04:10:47.144Z,98039.00
2023-04-21T04:16:55.375Z,98032.00
2023-04-21T04:22:47.827Z,98035.00
2023-04-21T04:28:12.476Z,98040.00
2023-04-21T04:33:43.648Z,98046.00
2023-04-21T04:39:15.706Z,98054.00
2023-04-21T04:44:38.283Z,98054.00
2023-04-21T04:49:59.839Z,98045.00
2023-04-21T04:55:22.365Z,98036.00
2023-04-21T05:00:43.904Z,98040.00
2023-04-21T05:06:20.476Z,98044.00
2023-04-21T05:11:56.461Z,98046.00
2023-04-21T05:17:27.168Z,98056.00
2023-04-21T05:22:56.674Z,98058.00
2023-04-21T05:28:35.759Z,98060.00
2023-04-21T05:34:05.068Z,98073.00
2023-04-21T05:39:28.695Z,98068.00
2023-04-21T05:44:49.975Z,98069.00
2023-04-21T05:50:11.522Z,98066.00
2023-04-21T05:55:35.759Z,98064.00
2023-04-21T06:00:57.103Z,98065.00
2023-04-21T06:06:46.865Z,98062.00
2023-04-21T06:12:24.317Z,98068.00
2023-04-21T06:18:03.808Z,98056.00
2023-04-21T06:23:28.477Z,98059.00
2023-04-21T06:29:05.320Z,98049.00
2023-04-21T06:34:27.545Z,98047.00
2023-04-21T06:39:48.975Z,98049.00
2023-04-21T06:45:11.129Z,98051.00
2023-04-21T06:50:34.396Z,98045.00
2023-04-21T06:56:11.724Z,98036.00
2023-04-21T07:02:00.206Z,98037.00
2023-04-21T07:07:44.024Z,98024.00
2023-04-21T07:13:08.835Z,98034.00
2023-04-21T07:18:56.707Z,98033.00
2023-04-21T07:24:19.519Z,98033.00
2023-04-21T07:29:41.010Z,98026.00
2023-04-21T07:35:03.225Z,98021.00
2023-04-21T07:40:28.810Z,98027.00
2023-04-21T07:52:01.783Z,98017.00
2023-04-21T07:57:42.696Z,98023.00
2023-04-21T08:03:24.421Z,98026.00
2023-04-21T08:08:47.551Z,98032.00
2023-04-21T08:14:21.249Z,98018.00
2023-04-21T08:19:43.594Z,98033.00
2023-04-21T08:25:05.827Z,98044.00
2023-04-21T08:30:29.958Z,98040.00
2023-04-21T08:36:15.079Z,98042.00
2023-04-21T08:42:04.664Z,98042.00
2023-04-21T08:47:47.491Z,98038.00
2023-04-21T08:53:25.205Z,98041.00
2023-04-21T08:58:57.857Z,98039.00
2023-04-21T09:04:42.013Z,98046.00
2023-04-21T09:10:06.424Z,98045.00
2023-04-21T09:15:31.681Z,98038.00
2023-04-21T09:21:27.433Z,98031.00
2023-04-21T09:27:12.890Z,98044.00
2023-04-21T09:32:56.129Z,98045.00
2023-04-21T09:38:32.158Z,98021.00
2023-04-21T09:44:05.236Z,98043.00
2023-04-21T09:49:34.069Z,98044.00
2023-04-21T09:55:01.939Z,98034.00
2023-04-21T10:00:31.299Z,98038.00
2023-04-21T10:06:18.175Z,98036.00
2023-04-21T10:12:10.092Z,98043.00
2023-04-21T10:17:56.090Z,98026.00
2023-04-21T10:23:40.423Z,98026.00
2023-04-21T10:29:09.223Z,98021.00
2023-04-21T10:34:39.218Z,98014.00
2023-04-21T10:40:00.471Z,98011.00
2023-04-21T10:45:30.466Z,98013.00
2023-04-21T10:51:09.386Z,98015.00
2023-04-21T10:57:00.479Z,98002.00
2023-04-21T11:02:53.320Z,98009.00
2023-04-21T11:08:16.199Z,98011.00
2023-04-21T11:13:51.299Z,98004.00
2023-04-21T11:19:16.360Z,98001.00
2023-04-21T11:24:37.816Z,98000.00
2023-04-21T11:29:59.276Z,98006.00
2023-04-21T11:35:21.047Z,97986.00
2023-04-21T11:40:48.039Z,97995.00
2023-04-21T11:46:40.855Z,98001.00
2023-04-21T11:52:20.501Z,97990.00
2023-04-21T11:58:01.709Z,97989.00
2023-04-21T12:03:36.438Z,97995.00
2023-04-21T12:09:03.994Z,97985.00
2023-04-21T12:14:27.189Z,97978.00
2023-04-21T12:19:48.919Z,97978.00
2023-04-21T12:25:10.587Z,97986.00
2023-04-21T12:30:33.394Z,97971.00
2023-04-21T12:36:25.226Z,97974.00
2023-04-21T12:42:08.373Z,97975.00
2023-04-21T12:48:05.362Z,97966.00
2023-04-21T12:53:35.510Z,97978.00
2023-04-21T12:59:06.773Z,97963.00
2023-04-21T13:04:47.922Z,97970.00
2023-04-21T13:10:28.121Z,97966.00
2023-04-21T13:16:05.734Z,97967.00
2023-04-21T13:21:54.767Z,97958.00
2023-04-21T13:27:44.450Z,97953.00
2023-04-21T13:33:22.426Z,97943.00
2023-04-21T13:38:54.581Z,97937.00
2023-04-21T13:44:18.054Z,97934.00
2023-04-21T13:49:39.646Z,97927.00
2023-04-21T13:55:01.136Z,97923.00
2023-04-21T14:00:22.849Z,97913.00
2023-04-21T14:06:05.064Z,97901.00
2023-04-21T14:11:44.101Z,97895.00
2023-04-21T14:17:22.907Z,97892.00
2023-04-21T14:22:59.469Z,97897.00
2023-04-21T14:28:38.717Z,97898.00
2023-04-21T14:34:08.632Z,97889.00
2023-04-21T14:39:30.720Z,97877.00
2023-04-21T14:44:52.323Z,97877.00
2023-04-21T14:50:13.735Z,97879.00
2023-04-21T14:55:35.562Z,97876.00
2023-04-21T15:00:57.108Z,97867.00
2023-04-21T15:06:39.094Z,97872.00
2023-04-21T15:12:17.458Z,97861.00
2023-04-21T15:17:59.132Z,97846.00
2023-04-21T15:23:38.376Z,97844.00
2023-04-21T15:29:07.830Z,97843.00
2023-04-21T15:34:31.039Z,97844.00
2023-04-21T15:39:52.347Z,97843.00
2023-04-21T15:45:13.979Z,97841.00
2023-04-21T15:50:36.897Z,97842.00
2023-04-21T15:56:27.310Z,97840.00
2023-04-21T16:02:02.119Z,97841.00
2023-04-21T16:07:48.102Z,97834.00
2023-04-21T16:13:17.824Z,97824.00
2023-04-21T16:18:52.786Z,97823.00
2023-04-21T16:24:15.756Z,97824.00
2023-04-21T16:29:37.681Z,97820.00
2023-04-21T16:35:15.472Z,97817.00
2023-04-21T16:40:37.370Z,97816.00
2023-04-21T16:52:02.632Z,97799.00
2023-04-21T16:57:50.474Z,97813.00
2023-04-21T17:03:26.237Z,97807.00
2023-04-21T17:08:49.856Z,97808.00
2023-04-21T17:14:15.507Z,97802.00
2023-04-21T17:19:37.725Z,97818.00
2023-04-21T17:24:59.377Z,97808.00
2023-04-21T17:30:22.880Z,97812.00
2023-04-21T17:36:00.023Z,97804.00
2023-04-21T17:42:02.547Z,97804.00
2023-04-21T17:47:54.880Z,97809.00
2023-04-21T17:53:28.418Z,97807.00
2023-04-21T17:59:03.964Z,97817.00
2023-04-21T18:04:39.400Z,97817.00
2023-04-21T18:10:01.667Z,97816.00
2023-04-21T18:15:23.295Z,97819.00
2023-04-21T18:20:45.111Z,97823.00
2023-04-21T18:26:34.775Z,97827.00
2023-04-21T18:32:16.326Z,97823.00
2023-04-21T18:37:57.445Z,97823.00
2023-04-21T18:43:29.063Z,97828.00
2023-04-21T18:48:57.869Z,97822.00
2023-04-21T18:54:24.414Z,97823.00
2023-04-21T18:59:46.618Z,97825.00
2023-04-21T19:05:31.517Z,97822.00
2023-04-21T19:10:55.768Z,97823.00
2023-04-21T19:16:36.839Z,97816.00
2023-04-21T19:22:18.005Z,97822.00
2023-04-21T19:27:55.154Z,97816.00
2023-04-21T19:33:28.978Z,97825.00
2023-04-21T19:38:55.802Z,97816.00
2023-04-21T19:44:20.254Z,97814.00
2023-04-21T19:49:41.696Z,97819.00
2023-04-21T19:55:04.718Z,97815.00
2023-04-21T20:00:26.378Z,97813.00
2023-04-21T20:05:50.529Z,97817.00
2023-04-21T20:11:29.454Z,97816.00
2023-04-21T20:17:10.352Z,97821.00
2023-04-21T20:28:30.459Z,97826.00
2023-04-21T20:33:56.923Z,97824.00
2023-04-21T20:39:23.940Z,97829.00
2023-04-21T20:44:46.342Z,97826.00
2023-04-21T20:50:07.988Z,97823.00
2023-04-21T20:55:30.257Z,97823.00
2023-04-21T21:00:51.671Z,97821.00
2023-04-21T21:06:39.912Z,97823.00
2023-04-21T21:12:22.219Z,97838.00
2023-04-21T21:18:00.699Z,97840.00
2023-04-21T21:23:46.292Z,97838.00
2023-04-21T21:29:13.964Z,97833.00
2023-04-21T21:34:35.898Z,97841.00
2023-04-21T21:39:57.277Z,97842.00
2023-04-21T21:45:18.772Z,97849.00
2023-04-21T21:50:40.623Z,97853.00
2023-04-21T21:56:33.279Z,97862.00
2023-04-21T22:02:08.486Z,97855.00
2023-04-21T22:08:01.371Z,97847.00
2023-04-21T22:13:42.146Z,97856.00
2023-04-21T22:19:12.827Z,97850.00
2023-04-21T22:24:34.670Z,97850.00
2023-04-21T22:29:56.202Z,97847.00
2023-04-21T22:35:17.766Z,97852.00
2023-04-21T22:40:39.438Z,97856.00
2023-04-21T22:46:29.413Z,97848.00
2023-04-21T22:52:09.123Z,97858.00
2023-04-21T22:58:02.474Z,97848.00
2023-04-21T23:03:39.972Z,97849.00
2023-04-21T23:09:09.797Z,97851.00
2023-04-21T23:14:31.603Z,97849.00
2023-04-21T23:19:55.284Z,97845.00
2023-04-21T23:25:16.566Z,97847.00
2023-04-21T23:30:38.385Z,97848.00
2023-04-21T23:36:39.179Z,97844.00
2023-04-21T23:42:22.376Z,97840.00
2023-04-21T23:47:53.029Z,97836.00
2023-04-21T23:53:20.822Z,97832.00
2023-04-21T23:58:55.941Z,97823.00
